Ibia, Brazil
Current Conditions -  °F | °C
As of 6:00 PM on Thursday 27 Nov 2014 (Local Time) from SBAX Reporting Station
Thunderstorm Thunderstorm  
Wind Chill: 70°   Ceiling: 1000
Heat Index: 70°   Visibility: 6mi
Dew Point: 66°   Wind: 7mph
Humidity: 88%   Direction: 250°WSW
Pressure: 29.97"   Gusts: NA
Location:  19.48°S, 46.54°W
Report Text: SBAX 272000Z 25006KT 9000 2000SE TS VCSH BKN010 FEW015CB 21/19 Q1015
Loading
Personal Weather Stations






























Interactive Weather Map New forecast layout! Learn more

10-Day Weather Forecast

Advertisements
Track Severe Weather on mobile